Time;durP1;ratioP1;P1;durP2;ratioP2;P2;SDS_P1;SDS_P2;PMS_P1;PMS_P2;Temp;Humidity;BMP_temperature;BMP_pressure;BME280_temperature;BME280_humidity;BME280_pressure;Samples;Min_cycle;Max_cycle;Signal;HPM_P1;HPM_P2
2021/07/08 00:01:55;;;;;;;4.10;1.35;;;;;;;16.74;92.86;100946.09;4996630;28;20022;-85
2021/07/08 00:04:20;;;;;;;4.85;1.15;;;;;;;16.64;93.96;100939.50;5014496;28;20029;-85
2021/07/08 00:06:46;;;;;;;7.10;1.25;;;;;;;16.49;95.78;100938.31;4996679;28;20037;-85
2021/07/08 00:09:12;;;;;;;5.47;1.48;;;;;;;16.37;96.08;100954.47;5008404;23;20381;-93
2021/07/08 00:11:41;;;;;;;5.18;1.20;;;;;;;16.48;96.17;100946.22;4958703;28;20165;-93
2021/07/08 00:14:07;;;;;;;3.97;1.20;;;;;;;16.57;97.06;100953.75;4959515;28;20077;-93
2021/07/08 00:16:35;;;;;;;3.80;1.33;;;;;;;16.57;97.57;100948.50;4958887;28;20039;-93
2021/07/08 00:19:01;;;;;;;5.32;1.45;;;;;;;16.67;95.86;100947.25;4953358;29;20114;-93
2021/07/08 00:21:26;;;;;;;7.80;1.50;;;;;;;16.68;97.43;100950.72;4938894;29;20072;-93
2021/07/08 00:23:52;;;;;;;6.45;1.25;;;;;;;16.59;98.04;100949.28;4942507;29;20034;-93
2021/07/08 00:26:18;;;;;;;6.07;1.48;;;;;;;16.60;97.97;100953.66;4943102;29;20034;-93
2021/07/08 00:28:44;;;;;;;4.22;1.20;;;;;;;16.56;100.00;100952.03;4943169;28;20095;-93
2021/07/08 00:31:10;;;;;;;6.07;1.70;;;;;;;16.46;98.71;100953.28;4942710;29;20035;-93
2021/07/08 00:33:37;;;;;;;8.27;1.55;;;;;;;16.52;99.12;100953.06;4942759;29;20114;-93
2021/07/08 00:36:02;;;;;;;5.05;1.33;;;;;;;16.59;98.35;100949.28;4942196;29;20035;-92
2021/07/08 00:38:28;;;;;;;4.63;1.40;;;;;;;16.57;98.78;100944.13;4941704;28;20019;-93
2021/07/08 00:40:53;;;;;;;6.57;1.50;;;;;;;16.73;98.22;100940.94;4942268;29;20034;-93
2021/07/08 00:43:22;;;;;;;4.38;1.58;;;;;;;16.67;99.63;100944.63;4942027;29;20038;-93
2021/07/08 00:45:48;;;;;;;5.50;1.30;;;;;;;16.65;99.82;100946.44;4942941;29;20377;-93
2021/07/08 00:48:14;;;;;;;6.55;1.58;;;;;;;16.67;100.00;100944.63;4944421;29;20055;-93
2021/07/08 00:50:46;;;;;;;6.07;1.60;;;;;;;16.73;100.00;100947.03;4941811;29;20031;-92
2021/07/08 00:53:13;;;;;;;4.45;1.27;;;;;;;16.58;100.00;100935.34;4942485;29;20066;-93
2021/07/08 00:55:41;;;;;;;5.30;1.27;;;;;;;16.53;100.00;100939.03;4942128;29;20031;-93
2021/07/08 00:58:09;;;;;;;4.80;1.30;;;;;;;16.45;100.00;100941.09;4941624;29;20027;-93
2021/07/08 01:00:39;;;;;;;6.60;1.83;;;;;;;16.49;100.00;100940.06;4941604;29;20054;-93
2021/07/08 01:03:21;;;;;;;5.38;1.60;;;;;;;16.52;100.00;100937.34;4941612;29;20054;-93
2021/07/08 01:05:54;;;;;;;6.05;1.70;;;;;;;16.50;100.00;100945.28;4942288;29;20538;-93
2021/07/08 01:08:20;;;;;;;4.57;1.45;;;;;;;16.53;100.00;100947.78;4941482;29;20085;-93
2021/07/08 01:10:49;;;;;;;7.00;1.80;;;;;;;16.54;100.00;100946.84;4941527;29;20494;-92
2021/07/08 01:13:16;;;;;;;3.67;1.20;;;;;;;16.57;100.00;100941.50;4942065;29;20031;-93
2021/07/08 01:15:45;;;;;;;8.27;1.73;;;;;;;16.52;100.00;100946.06;4941455;29;20050;-92
2021/07/08 01:18:16;;;;;;;5.78;1.80;;;;;;;16.46;100.00;100938.41;4941367;29;20023;-93
2021/07/08 01:20:41;;;;;;;6.75;1.63;;;;;;;16.39;100.00;100941.34;4941249;29;20027;-93
2021/07/08 01:23:10;;;;;;;4.13;1.35;;;;;;;16.46;100.00;100943.66;4941216;29;20057;-93
2021/07/08 01:25:43;;;;;;;8.20;2.05;;;;;;;16.43;100.00;100959.47;4941091;29;20031;-92
2021/07/08 01:28:13;;;;;;;8.00;1.63;;;;;;;16.40;100.00;100954.34;4941823;29;20110;-93
2021/07/08 01:30:39;;;;;;;4.35;1.80;;;;;;;16.37;100.00;100954.47;4941457;29;20039;-93
2021/07/08 01:33:07;;;;;;;6.90;2.08;;;;;;;16.24;100.00;100948.81;4940913;29;20118;-92
2021/07/08 01:35:35;;;;;;;4.85;1.55;;;;;;;16.08;100.00;100942.41;4941493;29;20121;-93
2021/07/08 01:38:01;;;;;;;7.57;1.92;;;;;;;15.91;100.00;100934.28;4940771;29;20158;-93
2021/07/08 01:40:27;;;;;;;4.75;1.60;;;;;;;15.87;100.00;100929.16;4941054;29;20058;-92
2021/07/08 01:42:52;;;;;;;11.07;2.17;;;;;;;15.84;100.00;100921.41;4940915;29;20019;-92
2021/07/08 01:45:18;;;;;;;5.68;1.48;;;;;;;15.82;100.00;100936.31;4941176;29;20034;-92
2021/07/08 01:47:44;;;;;;;5.07;1.58;;;;;;;15.78;100.00;100936.47;4940825;29;20051;-92
2021/07/08 01:50:15;;;;;;;6.15;1.80;;;;;;;15.69;100.00;100934.16;4941166;29;20039;-92
2021/07/08 01:52:42;;;;;;;7.00;2.00;;;;;;;15.68;100.00;100938.53;4940596;29;20037;-92
2021/07/08 01:55:08;;;;;;;6.80;1.50;;;;;;;15.70;100.00;100933.25;4940411;29;20023;-92
2021/07/08 01:57:33;;;;;;;11.50;1.83;;;;;;;15.67;100.00;100934.22;4940917;29;20031;-92
2021/07/08 01:59:59;;;;;;;6.20;1.77;;;;;;;15.68;100.00;100935.94;4940614;29;20027;-93
2021/07/08 02:02:24;;;;;;;4.97;1.65;;;;;;;15.70;100.00;100928.91;4941037;29;20115;-92
2021/07/08 02:04:50;;;;;;;6.22;1.92;;;;;;;15.72;100.00;100934.06;4940709;29;20028;-92
2021/07/08 02:07:18;;;;;;;6.45;1.80;;;;;;;15.68;100.00;100930.69;4940887;29;20098;-92
2021/07/08 02:09:54;;;;;;;8.07;2.03;;;;;;;15.73;100.00;100931.38;4940320;29;20033;-92
2021/07/08 02:12:19;;;;;;;6.10;1.95;;;;;;;15.80;100.00;100932.91;4940747;29;20110;-92
2021/07/08 02:14:48;;;;;;;8.93;2.00;;;;;;;15.84;100.00;100933.66;4940616;29;20451;-92
2021/07/08 02:17:14;;;;;;;5.07;1.60;;;;;;;15.86;100.00;100931.84;4940805;29;20059;-92
2021/07/08 02:19:39;;;;;;;6.70;1.95;;;;;;;15.83;100.00;100938.03;4940339;29;20113;-92
2021/07/08 02:22:05;;;;;;;7.63;2.13;;;;;;;15.82;100.00;100935.44;4940245;29;20556;-92
2021/07/08 02:24:30;;;;;;;4.57;1.55;;;;;;;15.86;100.00;100932.69;4940246;29;20031;-92
2021/07/08 02:26:56;;;;;;;7.00;1.83;;;;;;;15.88;100.00;100930.88;4940221;29;20122;-92
2021/07/08 02:29:22;;;;;;;5.78;1.98;;;;;;;15.83;100.00;100924.94;4940370;29;20090;-92
2021/07/08 02:31:48;;;;;;;5.55;1.67;;;;;;;15.82;100.00;100920.59;4940770;29;20050;-93
2021/07/08 02:34:19;;;;;;;8.23;1.85;;;;;;;15.90;100.00;100929.97;4939910;29;20019;-92
2021/07/08 02:36:45;;;;;;;10.75;2.63;;;;;;;15.90;100.00;100928.22;4940941;29;20082;-92
2021/07/08 02:39:10;;;;;;;5.70;1.60;;;;;;;15.87;100.00;100923.94;4939591;29;20475;-92
2021/07/08 02:41:36;;;;;;;5.25;1.77;;;;;;;15.86;100.00;100916.16;4939460;29;20538;-92
2021/07/08 02:44:02;;;;;;;6.40;1.65;;;;;;;15.84;100.00;100924.03;4939781;28;20026;-92
2021/07/08 02:46:28;;;;;;;8.35;2.20;;;;;;;15.85;100.00;100919.66;4939157;29;20122;-92
2021/07/08 02:48:53;;;;;;;6.72;2.17;;;;;;;15.92;100.00;100917.69;4939051;29;20162;-92
2021/07/08 02:51:19;;;;;;;9.52;1.95;;;;;;;15.95;100.00;100930.66;4940521;29;20043;-92
2021/07/08 02:53:44;;;;;;;5.50;2.00;;;;;;;15.97;100.00;100928.84;4939693;29;20501;-92
2021/07/08 02:56:15;;;;;;;8.50;2.33;;;;;;;16.02;100.00;100921.69;4941925;29;20028;-92
2021/07/08 02:58:41;;;;;;;5.80;1.88;;;;;;;16.08;100.00;100921.50;4940658;28;20027;-92
2021/07/08 03:01:09;;;;;;;10.73;2.38;;;;;;;16.08;100.00;100926.72;4940320;29;20118;-92
2021/07/08 03:03:35;;;;;;;7.55;2.00;;;;;;;16.08;100.00;100908.41;4939707;29;20023;-91
2021/07/08 03:06:00;;;;;;;4.68;1.77;;;;;;;16.09;100.00;100915.34;4939243;29;20049;-93
2021/07/08 03:08:26;;;;;;;5.68;1.92;;;;;;;16.06;100.00;100918.06;4940132;29;20031;-92
2021/07/08 03:10:52;;;;;;;5.47;1.98;;;;;;;16.03;100.00;100918.16;4938755;29;20582;-92
2021/07/08 03:13:17;;;;;;;7.07;2.50;;;;;;;16.03;100.00;100928.63;4939637;29;20038;-92
2021/07/08 03:15:43;;;;;;;6.30;1.85;;;;;;;16.07;100.00;100932.84;4939187;29;20027;-92
2021/07/08 03:18:08;;;;;;;6.15;1.80;;;;;;;16.01;100.00;100930.44;4939377;29;20030;-92
2021/07/08 03:20:34;;;;;;;5.75;1.92;;;;;;;15.99;100.00;100929.66;4939222;29;20391;-92
2021/07/08 03:23:04;;;;;;;6.07;1.85;;;;;;;16.06;100.00;100924.13;4939207;29;20058;-93
2021/07/08 03:25:30;;;;;;;5.95;1.70;;;;;;;16.07;100.00;100932.84;4939181;29;20039;-93
2021/07/08 03:27:56;;;;;;;6.43;1.85;;;;;;;16.14;100.00;100936.97;4939836;29;20093;-92
2021/07/08 03:30:24;;;;;;;7.05;1.90;;;;;;;16.19;100.00;100929.78;4939083;29;20043;-92
2021/07/08 03:32:52;;;;;;;5.47;1.80;;;;;;;16.27;100.00;100940.00;4939242;29;20061;-93
2021/07/08 03:35:17;;;;;;;5.28;1.95;;;;;;;16.20;100.00;100935.91;4939174;29;20023;-92
2021/07/08 03:37:43;;;;;;;8.32;2.20;;;;;;;16.22;100.00;100936.69;4939391;29;20026;-92
2021/07/08 03:40:12;;;;;;;5.70;2.00;;;;;;;16.23;100.00;100939.25;4938696;29;20059;-93
2021/07/08 03:42:39;;;;;;;8.40;2.33;;;;;;;16.32;100.00;100931.09;4938914;29;20506;-92
2021/07/08 03:45:06;;;;;;;6.82;1.92;;;;;;;16.40;100.00;100930.78;4939044;29;20027;-92
2021/07/08 03:47:31;;;;;;;7.85;2.22;;;;;;;16.41;100.00;100936.88;4939659;29;20038;-92
2021/07/08 03:49:56;;;;;;;5.78;2.05;;;;;;;16.41;100.00;100939.50;4939043;29;20019;-91
2021/07/08 03:52:22;;;;;;;7.78;1.80;;;;;;;16.39;100.00;100939.56;4939296;29;20480;-92
2021/07/08 03:54:47;;;;;;;6.25;2.10;;;;;;;16.51;100.00;100938.25;4939524;29;20031;-92
2021/07/08 03:57:13;;;;;;;11.35;2.53;;;;;;;16.50;100.00;100944.41;4938271;29;20027;-92
2021/07/08 03:59:38;;;;;;;9.45;2.30;;;;;;;16.42;100.00;100954.31;4938246;29;20023;-93
2021/07/08 04:02:06;;;;;;;6.68;2.35;;;;;;;16.35;100.00;100953.69;4938486;29;20019;-92
2021/07/08 04:04:38;;;;;;;6.40;2.17;;;;;;;16.39;100.00;100957.03;4939218;29;20332;-92
2021/07/08 04:07:06;;;;;;;6.47;1.90;;;;;;;16.36;100.00;100958.00;4938503;29;20023;-92
2021/07/08 04:09:32;;;;;;;6.32;2.00;;;;;;;16.42;100.00;100954.31;4938046;29;20031;-92
2021/07/08 04:11:59;;;;;;;9.73;1.90;;;;;;;16.51;100.00;100972.31;4938238;29;20039;-92
2021/07/08 04:14:24;;;;;;;6.85;2.08;;;;;;;16.51;100.00;100961.84;4938163;29;20031;-92
2021/07/08 04:16:49;;;;;;;5.55;2.13;;;;;;;16.48;100.00;100972.41;4938280;29;20102;-92
2021/07/08 04:19:15;;;;;;;7.25;2.38;;;;;;;16.54;100.00;100970.44;4938895;29;20110;-92
2021/07/08 04:21:40;;;;;;;5.43;1.75;;;;;;;16.61;100.00;100972.81;4938973;29;20035;-92
2021/07/08 04:24:06;;;;;;;7.25;2.22;;;;;;;16.63;100.00;100974.47;4939053;29;20038;-92
2021/07/08 04:26:31;;;;;;;8.45;2.38;;;;;;;16.52;100.00;100985.34;4938120;29;20031;-92
2021/07/08 04:28:56;;;;;;;5.47;2.15;;;;;;;16.59;100.00;100991.19;4938866;29;20051;-92
2021/07/08 04:31:25;;;;;;;7.07;2.13;;;;;;;16.67;100.00;100999.63;4938261;29;20027;-92
2021/07/08 04:33:50;;;;;;;8.63;2.60;;;;;;;16.83;100.00;100994.72;4938660;29;20027;-92
2021/07/08 04:36:16;;;;;;;6.80;2.03;;;;;;;16.84;100.00;100996.44;4938502;29;20031;-92
2021/07/08 04:38:42;;;;;;;7.93;1.80;;;;;;;16.85;100.00;100994.69;4938291;28;20494;-92
2021/07/08 04:41:09;;;;;;;7.32;1.92;;;;;;;16.86;100.00;100988.50;4938063;29;20023;-92
2021/07/08 04:43:35;;;;;;;6.97;2.13;;;;;;;16.91;100.00;100991.81;4938297;29;20031;-91
2021/07/08 04:46:00;;;;;;;7.72;2.13;;;;;;;17.09;100.00;100992.88;4937819;29;20030;-92
2021/07/08 04:48:26;;;;;;;7.35;2.33;;;;;;;17.20;100.00;100993.31;4938187;29;20030;-91
2021/07/08 04:50:51;;;;;;;9.25;2.63;;;;;;;17.15;100.00;100995.25;4937721;29;20495;-92
2021/07/08 04:53:17;;;;;;;6.75;1.88;;;;;;;17.11;100.00;101004.16;4938300;29;20027;-92
2021/07/08 04:55:43;;;;;;;6.50;2.33;;;;;;;17.13;100.00;101002.34;4938277;29;20029;-91
2021/07/08 04:58:08;;;;;;;12.90;3.35;;;;;;;17.13;100.00;100992.72;4937837;29;20114;-92
2021/07/08 05:00:37;;;;;;;6.60;2.42;;;;;;;17.19;100.00;100997.72;4937776;29;20028;-92
2021/07/08 05:03:07;;;;;;;6.03;2.00;;;;;;;17.30;100.00;100999.91;4938278;29;20078;-91
2021/07/08 05:05:32;;;;;;;7.40;2.30;;;;;;;17.43;100.00;100998.53;4937964;29;20023;-91
2021/07/08 05:07:58;;;;;;;8.02;2.28;;;;;;;17.47;100.00;100997.47;4939607;29;20383;-91
2021/07/08 05:10:23;;;;;;;7.70;2.28;;;;;;;17.46;100.00;101000.19;4941603;29;20468;-91
2021/07/08 05:12:49;;;;;;;7.35;2.15;;;;;;;17.36;100.00;100990.94;4941372;29;20035;-92
2021/07/08 05:15:15;;;;;;;6.18;2.50;;;;;;;17.33;100.00;100996.31;4941427;29;20030;-92
2021/07/08 05:17:41;;;;;;;12.15;2.30;;;;;;;17.35;100.00;100997.13;4941077;29;20391;-92
2021/07/08 05:20:08;;;;;;;11.25;2.67;;;;;;;17.56;100.00;101009.38;4940847;29;20019;-91
2021/07/08 05:22:35;;;;;;;9.30;2.33;;;;;;;17.65;100.00;101009.00;4940924;29;20027;-92
2021/07/08 05:25:01;;;;;;;8.80;2.40;;;;;;;17.62;100.00;101009.13;4941741;29;20051;-91
2021/07/08 05:27:26;;;;;;;5.78;1.95;;;;;;;17.62;100.00;101006.50;4941384;29;20109;-88
2021/07/08 05:29:52;;;;;;;7.45;2.20;;;;;;;17.65;100.00;101006.38;4940277;29;20059;-90
2021/07/08 05:32:18;;;;;;;6.72;2.35;;;;;;;17.70;100.00;101003.56;4940502;29;20082;-90
2021/07/08 05:34:44;;;;;;;6.47;2.03;;;;;;;17.81;100.00;100992.69;4940548;29;20074;-91
2021/07/08 05:37:10;;;;;;;7.78;2.47;;;;;;;17.90;100.00;100994.91;4940878;29;20034;-88
2021/07/08 05:39:38;;;;;;;9.82;2.20;;;;;;;18.02;100.00;100989.16;4940385;29;20026;-90
2021/07/08 05:42:04;;;;;;;5.88;2.38;;;;;;;18.15;100.00;100997.34;4941594;29;20019;-91
2021/07/08 05:44:30;;;;;;;5.95;2.28;;;;;;;18.20;100.00;100995.41;4940680;29;20027;-88
2021/07/08 05:46:59;;;;;;;9.63;2.20;;;;;;;18.23;100.00;100989.16;4940862;29;20109;-91
2021/07/08 05:49:24;;;;;;;10.00;2.95;;;;;;;18.34;100.00;100994.78;4940688;29;20480;-91
2021/07/08 05:51:55;;;;;;;8.73;2.17;;;;;;;18.43;100.00;100991.75;4940494;29;20074;-91
2021/07/08 05:54:29;;;;;;;7.18;2.15;;;;;;;18.59;99.96;100997.19;4940392;29;20090;-91
2021/07/08 05:56:58;;;;;;;5.93;2.05;;;;;;;18.57;100.00;100999.91;4940100;29;20023;-91
2021/07/08 05:59:28;;;;;;;6.75;2.00;;;;;;;18.57;99.54;100994.63;4940023;29;20023;-91
2021/07/08 06:01:53;;;;;;;9.82;2.08;;;;;;;18.60;96.79;100997.13;4940870;29;20034;-91
2021/07/08 06:04:19;;;;;;;7.57;2.30;;;;;;;18.62;94.18;100997.91;4940752;29;20035;-91
2021/07/08 06:06:44;;;;;;;7.50;2.00;;;;;;;18.81;96.30;100999.72;4940019;29;20031;-91
2021/07/08 06:09:10;;;;;;;7.57;1.90;;;;;;;18.99;94.72;100992.78;4941425;29;20487;-91
2021/07/08 06:11:35;;;;;;;5.68;2.00;;;;;;;19.32;90.48;100992.97;4940331;29;20105;-91
2021/07/08 06:14:00;;;;;;;8.07;1.83;;;;;;;19.91;88.66;100994.50;4941723;29;20027;-91
2021/07/08 06:16:26;;;;;;;7.55;1.88;;;;;;;20.16;85.84;101002.00;4940962;29;20369;-91
2021/07/08 06:18:51;;;;;;;7.70;2.20;;;;;;;19.76;83.09;101006.63;4940970;28;20019;-90
2021/07/08 06:21:16;;;;;;;8.77;2.03;;;;;;;19.91;85.04;101015.56;4943726;29;20399;-91
2021/07/08 06:23:42;;;;;;;6.65;1.80;;;;;;;19.80;82.58;101022.28;4942169;29;20030;-89
2021/07/08 06:26:07;;;;;;;7.90;1.90;;;;;;;19.84;86.18;101019.44;4941673;29;20498;-91
2021/07/08 06:28:37;;;;;;;14.85;2.38;;;;;;;19.94;83.41;101031.19;4940081;28;20027;-91
2021/07/08 06:31:05;;;;;;;6.00;2.00;;;;;;;20.17;83.86;101027.44;4941030;29;20039;-91
2021/07/08 06:33:31;;;;;;;7.45;1.75;;;;;;;20.86;79.82;101037.03;4940970;29;20023;-91
2021/07/08 06:35:56;;;;;;;5.90;1.70;;;;;;;20.20;81.07;101037.81;4940991;29;20027;-91
2021/07/08 06:38:21;;;;;;;9.43;2.13;;;;;;;20.18;82.56;101039.66;4940746;29;20019;-91
2021/07/08 06:40:49;;;;;;;8.25;2.25;;;;;;;19.91;83.67;101051.56;4987399;23;20050;-84
2021/07/08 06:43:14;;;;;;;4.30;1.70;;;;;;;19.71;85.26;101045.50;4982568;28;20045;-84
2021/07/08 06:45:39;;;;;;;6.95;2.03;;;;;;;19.58;90.73;101039.09;4987085;28;20355;-84
2021/07/08 06:48:06;;;;;;;5.40;2.22;;;;;;;19.66;90.61;101051.91;5005613;28;20077;-83
2021/07/08 06:50:34;;;;;;;7.97;2.38;;;;;;;19.61;90.63;101059.13;5005341;28;20506;-83
2021/07/08 06:53:00;;;;;;;6.55;2.30;;;;;;;19.68;90.29;101048.28;5004699;28;20460;-83
2021/07/08 06:55:26;;;;;;;8.18;2.17;;;;;;;19.82;88.37;101058.13;5004677;28;20387;-83
2021/07/08 06:57:51;;;;;;;8.75;2.80;;;;;;;19.79;88.22;101060.91;4998946;28;20096;-84
2021/07/08 07:00:26;;;;;;;7.38;2.33;;;;;;;19.93;90.17;101047.09;4983697;28;20030;-84
2021/07/08 07:02:56;;;;;;;7.20;2.20;;;;;;;19.77;90.26;101047.00;4983372;28;20508;-83
2021/07/08 07:05:23;;;;;;;6.88;2.60;;;;;;;20.24;87.66;101043.75;4984397;28;20030;-84
2021/07/08 07:07:49;;;;;;;7.18;2.40;;;;;;;20.40;86.61;101038.56;4983102;28;20506;-84
2021/07/08 07:10:15;;;;;;;9.27;1.95;;;;;;;20.42;86.69;101044.59;4983125;28;20073;-84
2021/07/08 07:12:45;;;;;;;7.85;2.25;;;;;;;20.58;86.39;101039.44;4982405;28;20058;-84
2021/07/08 07:15:11;;;;;;;7.45;2.20;;;;;;;20.49;86.82;101048.63;5000708;28;20061;-83
2021/07/08 07:17:38;;;;;;;6.80;2.35;;;;;;;20.46;87.38;101048.78;5002127;28;20026;-83
2021/07/08 07:20:06;;;;;;;7.05;2.05;;;;;;;20.60;83.17;101045.47;4984529;28;20022;-83
2021/07/08 07:22:32;;;;;;;6.00;2.10;;;;;;;20.75;79.91;101052.59;5000068;28;20030;-84
2021/07/08 07:24:57;;;;;;;8.40;2.20;;;;;;;20.78;77.10;101057.69;4995755;28;20433;-83
2021/07/08 07:27:22;;;;;;;8.07;2.00;;;;;;;20.94;76.41;101048.97;5002425;28;20025;-84
2021/07/08 07:29:48;;;;;;;9.80;1.98;;;;;;;20.94;78.80;101062.16;4984676;28;20034;-84
2021/07/08 07:32:13;;;;;;;8.18;2.65;;;;;;;21.01;78.95;101071.44;4980848;28;20065;-84
2021/07/08 07:34:38;;;;;;;8.60;2.00;;;;;;;21.32;79.77;101066.19;4978833;28;20038;-85
2021/07/08 07:37:04;;;;;;;7.50;1.80;;;;;;;21.55;77.71;101072.00;4978286;28;20037;-85
2021/07/08 07:39:29;;;;;;;7.57;2.47;;;;;;;21.64;78.42;101068.84;4977556;28;20630;-85
2021/07/08 07:41:54;;;;;;;8.00;2.10;;;;;;;22.02;78.32;101063.19;4994207;28;20034;-86
2021/07/08 07:44:20;;;;;;;6.67;1.97;;;;;;;22.28;75.77;101062.50;4994184;28;20038;-85
2021/07/08 07:46:45;;;;;;;8.77;2.08;;;;;;;22.11;75.19;101070.56;4994311;28;20354;-85
2021/07/08 07:49:11;;;;;;;6.97;1.90;;;;;;;21.76;75.47;101068.16;4976915;28;20049;-85
2021/07/08 07:51:36;;;;;;;7.30;1.75;;;;;;;22.18;76.56;101060.53;4976800;28;20265;-85
2021/07/08 07:54:02;;;;;;;8.15;1.92;;;;;;;22.41;73.04;101057.34;4995171;28;20029;-85
2021/07/08 07:56:27;;;;;;;8.95;2.28;;;;;;;23.54;69.15;101057.41;4980624;28;20023;-84
2021/07/08 07:58:52;;;;;;;6.93;2.13;;;;;;;22.87;72.18;101061.63;4978065;28;20019;-85
2021/07/08 08:01:17;;;;;;;8.38;2.20;;;;;;;22.78;69.38;101059.56;4994170;28;20034;-86
2021/07/08 08:03:43;;;;;;;7.60;2.17;;;;;;;22.93;69.22;101064.75;4993896;28;20026;-86
2021/07/08 08:08:52;;;;;;;;;;;;;;;22.52;71.08;101068.13;4994896;28;20538;-85
2021/07/08 08:11:21;;;;;;;8.45;2.20;;;;;;;21.99;75.22;101060.72;4993919;28;19913;-86
2021/07/08 08:13:46;;;;;;;8.48;2.25;;;;;;;22.80;71.19;101063.81;4994118;28;20022;-86
2021/07/08 08:16:11;;;;;;;6.90;2.13;;;;;;;23.54;68.56;101060.06;4993985;28;20030;-85
2021/07/08 08:18:36;;;;;;;9.25;2.90;;;;;;;23.43;68.56;101062.56;4994021;28;20026;-86
2021/07/08 08:21:02;;;;;;;8.32;2.35;;;;;;;22.45;73.02;101066.81;4976447;28;20069;-86
2021/07/08 08:23:28;;;;;;;8.20;2.03;;;;;;;22.91;72.02;101073.75;4976810;28;20072;-85
2021/07/08 08:25:53;;;;;;;11.55;2.30;;;;;;;22.81;72.02;101070.78;4994133;28;20098;-86
2021/07/08 08:28:18;;;;;;;6.30;2.13;;;;;;;22.75;76.99;101079.97;4993906;28;20026;-85
2021/07/08 08:30:44;;;;;;;6.93;2.08;;;;;;;22.83;71.27;101079.50;4976519;28;20042;-86
2021/07/08 08:33:10;;;;;;;5.60;1.83;;;;;;;23.04;72.05;101074.72;4977779;28;20049;-85
2021/07/08 08:35:35;;;;;;;8.07;2.03;;;;;;;22.99;72.09;101074.13;4994570;28;20030;-85
2021/07/08 08:38:01;;;;;;;8.20;1.83;;;;;;;23.46;69.86;101072.09;4977271;28;20022;-83
2021/07/08 08:40:27;;;;;;;6.70;2.33;;;;;;;23.75;68.34;101063.16;4981306;28;20061;-84
2021/07/08 08:42:53;;;;;;;6.70;2.03;;;;;;;23.57;70.29;101070.47;4995461;28;20026;-84
2021/07/08 08:45:18;;;;;;;6.75;2.65;;;;;;;23.06;71.67;101083.41;4980201;28;20033;-85
2021/07/08 08:48:08;;;;;;;12.73;2.72;;;;;;;23.41;68.81;101075.03;4997581;28;20565;-84
2021/07/08 08:50:43;;;;;;;9.18;2.25;;;;;;;23.66;66.88;101072.50;4981142;28;20104;-85
2021/07/08 08:53:09;;;;;;;11.13;3.10;;;;;;;24.24;63.69;101067.84;4997948;28;20026;-83
2021/07/08 08:55:36;;;;;;;8.38;2.45;;;;;;;23.91;65.11;101067.44;4999159;28;20558;-83
2021/07/08 08:58:07;;;;;;;8.00;2.10;;;;;;;24.37;65.38;101072.31;4999756;28;20030;-83
2021/07/08 09:00:43;;;;;;;5.40;2.10;;;;;;;23.62;64.43;101078.13;4998853;28;20402;-81
2021/07/08 09:03:14;;;;;;;6.88;2.20;;;;;;;23.75;63.20;101072.91;4981310;28;20053;-85
2021/07/08 09:05:42;;;;;;;8.43;2.33;;;;;;;23.35;65.00;101078.09;4998254;28;20034;-84
2021/07/08 09:08:19;;;;;;;10.40;2.72;;;;;;;23.25;67.80;101083.13;4981464;28;20054;-83
2021/07/08 09:10:47;;;;;;;8.30;2.30;;;;;;;23.61;68.26;101079.88;4983609;28;20034;-84
2021/07/08 09:13:14;;;;;;;8.00;2.20;;;;;;;23.98;63.97;101076.66;4983160;28;20023;-84
2021/07/08 09:15:40;;;;;;;10.10;2.60;;;;;;;23.50;64.32;101085.03;4982817;28;20026;-85
2021/07/08 09:18:05;;;;;;;9.13;2.55;;;;;;;23.72;66.12;101084.53;4999788;28;20053;-85
2021/07/08 09:20:30;;;;;;;8.50;2.58;;;;;;;25.89;59.01;101086.34;4979569;28;20099;-84
2021/07/08 09:23:17;;;;;;;8.98;2.38;;;;;;;25.55;57.91;101087.94;4979415;28;20019;-84
2021/07/08 09:25:45;;;;;;;7.55;2.40;;;;;;;24.45;58.90;101078.84;4979602;28;20482;-84
2021/07/08 09:28:22;;;;;;;6.65;2.17;;;;;;;23.71;63.50;101084.63;4979321;28;20522;-84
2021/07/08 09:31:02;;;;;;;8.23;2.30;;;;;;;23.30;64.65;101090.75;4979251;28;20041;-85
2021/07/08 09:33:28;;;;;;;8.15;2.38;;;;;;;24.45;58.44;101078.84;4996667;28;20522;-84
2021/07/08 09:36:08;;;;;;;7.20;2.05;;;;;;;26.82;50.67;101078.41;4996494;28;20034;-84
2021/07/08 09:38:34;;;;;;;7.95;2.15;;;;;;;25.07;54.56;101088.69;4980130;28;20026;-84
2021/07/08 09:41:08;;;;;;;7.75;2.25;;;;;;;25.41;54.23;101094.28;4996353;28;20041;-85
2021/07/08 09:43:34;;;;;;;6.38;1.63;;;;;;;24.88;59.24;101097.09;4996532;28;20031;-83
2021/07/08 09:46:00;;;;;;;6.20;1.80;;;;;;;23.86;59.00;101096.88;4979755;28;20027;-83
2021/07/08 09:48:25;;;;;;;8.13;2.10;;;;;;;23.76;55.69;101095.78;4978801;28;20068;-83
2021/07/08 09:50:51;;;;;;;8.90;2.00;;;;;;;23.98;55.90;101095.22;4978983;28;20080;-83
2021/07/08 09:53:18;;;;;;;6.85;2.10;;;;;;;24.03;56.73;101091.31;4996409;28;20375;-83
2021/07/08 09:58:28;;;;;;;7.47;2.00;;;;;;;24.88;52.50;101097.09;4996361;28;20108;-84
2021/07/08 10:00:54;;;;;;;9.57;1.83;;;;;;;24.44;51.81;101100.97;4978465;28;20109;-83
2021/07/08 10:03:19;;;;;;;8.80;1.77;;;;;;;24.06;54.85;101099.06;4978649;28;20441;-83
2021/07/08 10:05:45;;;;;;;7.00;1.80;;;;;;;23.95;54.39;101098.91;4978594;28;20045;-83
2021/07/08 10:08:11;;;;;;;9.00;1.88;;;;;;;24.02;55.47;101105.53;4978448;28;20121;-83
2021/07/08 10:10:38;;;;;;;5.10;1.90;;;;;;;24.19;55.61;101087.66;4996054;28;20037;-83
2021/07/08 10:13:06;;;;;;;8.45;1.65;;;;;;;24.03;56.08;101082.53;4978550;28;20022;-83
2021/07/08 10:15:35;;;;;;;4.30;1.58;;;;;;;23.77;56.61;101092.19;4978224;28;20053;-83
2021/07/08 10:18:02;;;;;;;6.55;1.80;;;;;;;24.37;58.42;101089.06;4995826;28;20026;-83
2021/07/08 10:20:29;;;;;;;9.05;2.10;;;;;;;24.49;58.60;101085.63;4995624;28;20053;-83
2021/07/08 10:22:55;;;;;;;8.73;1.58;;;;;;;24.86;59.28;101090.19;4978185;28;20105;-83
2021/07/08 10:25:20;;;;;;;6.82;2.00;;;;;;;23.80;57.98;101097.28;4978137;28;20053;-83
2021/07/08 10:27:46;;;;;;;8.15;1.77;;;;;;;23.63;58.50;101091.25;4978352;28;20081;-83
2021/07/08 10:30:12;;;;;;;8.27;2.10;;;;;;;23.87;59.07;101088.84;4977848;28;20117;-84
2021/07/08 10:32:39;;;;;;;10.73;2.45;;;;;;;23.60;60.62;101091.44;4977946;28;20049;-84
2021/07/08 10:35:06;;;;;;;9.05;2.00;;;;;;;23.52;61.01;101091.09;4980226;28;20050;-84
2021/07/08 10:37:35;;;;;;;8.88;2.10;;;;;;;23.89;61.40;101086.06;4979129;28;20034;-84
2021/07/08 10:40:03;;;;;;;8.85;2.15;;;;;;;24.40;57.15;101088.84;4978159;28;20109;-84
2021/07/08 10:42:43;;;;;;;8.82;2.35;;;;;;;25.00;55.71;101080.31;4979282;28;20471;-84
2021/07/08 10:45:35;;;;;;;7.13;1.67;;;;;;;25.49;56.76;101094.56;4977731;28;20486;-84
2021/07/08 10:48:19;;;;;;;8.57;1.70;;;;;;;24.80;55.47;101083.50;4977514;28;20144;-85
2021/07/08 10:50:46;;;;;;;7.32;1.90;;;;;;;24.62;57.66;101084.78;4977696;28;20113;-84
2021/07/08 10:53:27;;;;;;;9.40;2.22;;;;;;;24.03;56.47;101085.19;4977920;28;20406;-84
2021/07/08 10:55:54;;;;;;;5.72;1.70;;;;;;;25.44;52.60;101078.97;4977787;28;20022;-84
2021/07/08 10:58:41;;;;;;;9.18;2.10;;;;;;;25.19;52.54;101081.69;4977915;28;20048;-84
2021/07/08 11:01:09;;;;;;;7.07;1.75;;;;;;;24.85;54.93;101080.53;4977686;28;20109;-84
2021/07/08 11:03:43;;;;;;;7.40;1.83;;;;;;;25.39;55.13;101081.09;4978246;28;20018;-83
2021/07/08 11:06:13;;;;;;;7.90;2.17;;;;;;;25.02;55.03;101078.38;4977483;28;20471;-84
2021/07/08 11:08:44;;;;;;;7.28;1.85;;;;;;;24.82;55.97;101080.75;4977483;28;20506;-83
2021/07/08 11:11:09;;;;;;;6.85;1.83;;;;;;;25.38;54.04;101071.44;4977767;28;20027;-83
2021/07/08 11:13:35;;;;;;;12.15;3.10;;;;;;;26.07;54.16;101065.53;4977848;28;20121;-83
2021/07/08 11:16:00;;;;;;;7.72;2.15;;;;;;;25.82;52.74;101062.03;4995040;28;20109;-86
2021/07/08 11:18:31;;;;;;;8.38;2.20;;;;;;;25.34;54.72;101056.69;4994531;28;20458;-84
2021/07/08 11:20:56;;;;;;;6.43;1.60;;;;;;;26.50;52.06;101062.28;4977206;28;20027;-84
2021/07/08 11:23:39;;;;;;;8.85;2.03;;;;;;;26.59;51.27;101050.91;4977304;28;20028;-84
2021/07/08 11:26:05;;;;;;;6.35;2.00;;;;;;;26.50;51.95;101054.28;4977043;28;20113;-84
2021/07/08 11:28:33;;;;;;;7.38;2.08;;;;;;;25.31;54.01;101051.59;4977075;28;20048;-85